createdAt,value
2018-01-20T00:01:34.295Z,1.10
2018-01-20T00:04:45.582Z,1.10
2018-01-20T00:07:55.457Z,1.10
2018-01-20T00:11:24.182Z,1.10
2018-01-20T00:14:35.637Z,1.10
2018-01-20T00:17:46.154Z,1.10
2018-01-20T00:20:56.743Z,1.10
2018-01-20T00:24:06.981Z,1.10
2018-01-20T00:27:16.720Z,1.10
2018-01-20T00:30:26.511Z,1.10
2018-01-20T00:33:36.676Z,1.10
2018-01-20T00:36:47.098Z,1.10
2018-01-20T00:39:57.088Z,1.10
2018-01-20T00:43:07.083Z,1.10
2018-01-20T00:46:17.586Z,1.10
2018-01-20T00:49:27.469Z,1.10
2018-01-20T00:52:37.426Z,1.10
2018-01-20T00:55:47.415Z,1.10
2018-01-20T00:58:57.352Z,1.10
2018-01-20T01:02:08.094Z,1.10
2018-01-20T01:05:18.695Z,1.10
2018-01-20T01:08:29.283Z,1.10
2018-01-20T01:11:39.510Z,1.00
2018-01-20T01:14:49.810Z,1.10
2018-01-20T01:17:59.623Z,1.10
2018-01-20T01:21:09.914Z,1.10
2018-01-20T01:24:21.163Z,1.10
2018-01-20T01:27:31.540Z,1.00
2018-01-20T01:30:41.467Z,1.00
2018-01-20T01:33:51.727Z,1.10
2018-01-20T01:37:01.922Z,1.10
2018-01-20T01:40:12.272Z,1.10
2018-01-20T01:43:22.124Z,1.00
2018-01-20T01:46:31.801Z,1.10
2018-01-20T01:49:43.136Z,1.00
2018-01-20T01:52:52.957Z,1.00
2018-01-20T01:56:03.085Z,1.00
2018-01-20T01:59:13.796Z,1.00
2018-01-20T02:02:24.155Z,1.00
2018-01-20T02:05:34.144Z,1.00
2018-01-20T02:08:44.431Z,1.00
2018-01-20T02:11:54.268Z,1.00
2018-01-20T02:15:04.313Z,1.00
2018-01-20T02:18:14.611Z,1.00
2018-01-20T02:21:25.089Z,1.00
2018-01-20T02:24:35.151Z,1.00
2018-01-20T02:27:45.195Z,1.00
2018-01-20T02:30:55.067Z,1.10
2018-01-20T02:34:05.241Z,1.00
2018-01-20T02:37:15.615Z,1.00
2018-01-20T02:40:25.852Z,1.10
2018-01-20T02:43:35.886Z,1.00
2018-01-20T02:46:46.035Z,1.00
2018-01-20T02:49:56.390Z,1.00
2018-01-20T02:53:06.480Z,1.00
2018-01-20T02:56:16.547Z,1.00
2018-01-20T02:59:26.667Z,1.00
2018-01-20T03:02:36.577Z,1.00
2018-01-20T03:05:46.631Z,1.00
2018-01-20T03:08:56.527Z,1.00
2018-01-20T03:12:06.650Z,0.90
2018-01-20T03:15:16.592Z,0.90
2018-01-20T03:18:26.577Z,0.90
2018-01-20T03:21:37.288Z,0.90
2018-01-20T03:24:47.183Z,0.90
2018-01-20T03:27:57.282Z,0.90
2018-01-20T03:31:07.345Z,0.90
2018-01-20T03:34:17.256Z,1.00
2018-01-20T03:37:27.715Z,0.90
2018-01-20T03:40:37.639Z,1.00
2018-01-20T03:43:48.363Z,1.00
2018-01-20T03:46:58.835Z,1.00
2018-01-20T03:50:08.815Z,1.00
2018-01-20T03:53:18.543Z,1.00
2018-01-20T03:56:29.391Z,0.90
2018-01-20T03:59:40.687Z,1.00
2018-01-20T04:02:51.171Z,0.90
2018-01-20T04:06:01.440Z,0.90
2018-01-20T04:09:11.729Z,1.00
2018-01-20T04:12:21.762Z,0.90
2018-01-20T04:15:31.910Z,0.90
2018-01-20T04:18:42.255Z,0.80
2018-01-20T04:21:52.314Z,1.00
2018-01-20T04:25:02.919Z,0.90
2018-01-20T04:28:13.159Z,0.80
2018-01-20T04:31:23.951Z,0.90
2018-01-20T04:34:34.604Z,0.80
2018-01-20T04:37:45.382Z,0.90
2018-01-20T04:40:55.246Z,0.80
2018-01-20T04:44:05.227Z,0.80
2018-01-20T04:47:15.374Z,0.80
2018-01-20T04:50:25.637Z,0.80
2018-01-20T04:53:35.612Z,0.80
2018-01-20T04:56:46.305Z,0.80
2018-01-20T04:59:56.341Z,0.80
2018-01-20T05:03:06.153Z,0.70
2018-01-20T05:06:16.606Z,0.70
2018-01-20T05:09:27.378Z,0.60
2018-01-20T05:12:37.817Z,0.60
2018-01-20T05:15:47.969Z,0.60
2018-01-20T05:18:58.594Z,0.50
2018-01-20T05:22:08.941Z,0.50
2018-01-20T05:25:20.022Z,0.50
2018-01-20T05:28:30.326Z,0.50
2018-01-20T05:31:40.255Z,0.50
2018-01-20T05:34:50.307Z,0.40
2018-01-20T05:38:00.190Z,0.40
2018-01-20T05:41:10.430Z,0.40
2018-01-20T05:44:20.613Z,0.40
2018-01-20T05:47:30.506Z,0.40
2018-01-20T05:50:40.967Z,0.30
2018-01-20T05:53:51.734Z,0.30
2018-01-20T05:57:02.083Z,0.30
2018-01-20T06:00:12.143Z,0.30
2018-01-20T06:03:22.320Z,0.20
2018-01-20T06:06:32.159Z,0.20
2018-01-20T06:09:42.811Z,0.20
2018-01-20T06:12:52.676Z,0.20
2018-01-20T06:16:02.887Z,0.20
2018-01-20T06:19:13.230Z,0.20
2018-01-20T06:22:24.444Z,0.10
2018-01-20T06:25:35.815Z,0.10
2018-01-20T06:28:46.466Z,0.10
2018-01-20T06:31:56.575Z,0.00
2018-01-20T06:35:06.798Z,0.00
2018-01-20T06:38:16.911Z,0.00
2018-01-20T06:41:27.584Z,-0.10
2018-01-20T06:44:38.617Z,-0.20
2018-01-20T06:47:48.436Z,-0.20
2018-01-20T06:50:58.588Z,-0.30
2018-01-20T06:54:08.529Z,-0.30
2018-01-20T06:57:18.808Z,-0.30
2018-01-20T07:00:29.428Z,-0.30
2018-01-20T07:03:39.792Z,-0.30
2018-01-20T07:06:49.435Z,-0.30
2018-01-20T07:10:00.146Z,-0.30
2018-01-20T07:13:10.771Z,-0.30
2018-01-20T07:16:21.300Z,-0.30
2018-01-20T07:19:32.144Z,-0.40
2018-01-20T07:22:42.422Z,-0.40
2018-01-20T07:25:52.588Z,-0.40
2018-01-20T07:29:02.695Z,-0.40
2018-01-20T07:32:12.890Z,-0.40
2018-01-20T07:35:22.781Z,-0.40
2018-01-20T07:38:32.879Z,-0.40
2018-01-20T07:41:43.214Z,-0.30
2018-01-20T07:44:54.052Z,-0.40
2018-01-20T07:48:04.202Z,-0.30
2018-01-20T07:51:14.269Z,-0.30
2018-01-20T07:54:24.490Z,-0.20
2018-01-20T07:57:35.144Z,-0.20
2018-01-20T08:00:45.159Z,-0.20
2018-01-20T08:03:56.471Z,-0.20
2018-01-20T08:07:06.736Z,-0.20
2018-01-20T08:10:17.920Z,-0.10
2018-01-20T08:13:29.482Z,-0.10
2018-01-20T08:16:39.650Z,-0.10
2018-01-20T08:19:49.568Z,0.00
2018-01-20T08:22:59.413Z,0.10
2018-01-20T08:26:10.759Z,0.20
2018-01-20T08:29:23.306Z,0.30
2018-01-20T08:32:33.371Z,0.30
2018-01-20T08:35:44.199Z,0.40
2018-01-20T08:38:56.492Z,0.50
2018-01-20T08:42:07.886Z,0.60
2018-01-20T08:45:18.648Z,0.50
2018-01-20T08:48:30.015Z,0.80
2018-01-20T08:51:43.639Z,0.80
2018-01-20T08:54:54.708Z,0.80
2018-01-20T08:58:06.082Z,0.90
2018-01-20T09:01:17.842Z,0.90
2018-01-20T09:04:28.624Z,1.00
2018-01-20T09:07:39.953Z,1.10
2018-01-20T09:10:55.401Z,1.00
2018-01-20T09:14:09.687Z,1.10
2018-01-20T09:17:19.983Z,1.20
2018-01-20T09:20:30.039Z,1.30
2018-01-20T09:23:40.402Z,1.30
2018-01-20T09:26:51.570Z,1.30
2018-01-20T09:30:01.373Z,1.20
2018-01-20T09:33:11.615Z,1.30
2018-01-20T09:36:29.347Z,1.30
2018-01-20T09:39:42.109Z,1.30
2018-01-20T09:46:36.021Z,1.30
2018-01-20T09:49:46.353Z,1.40
2018-01-20T09:56:32.178Z,1.40
2018-01-20T09:59:42.218Z,1.50
2018-01-20T10:02:52.535Z,1.50
2018-01-20T10:06:03.962Z,1.60
2018-01-20T10:09:14.326Z,1.50
2018-01-20T10:12:24.486Z,1.60
2018-01-20T10:15:34.976Z,1.60
2018-01-20T10:18:45.013Z,1.60
2018-01-20T10:21:55.816Z,1.70
2018-01-20T10:25:06.054Z,1.70
2018-01-20T10:28:17.650Z,1.70
2018-01-20T10:31:27.703Z,1.70
2018-01-20T10:34:37.864Z,1.80
2018-01-20T10:37:49.332Z,1.80
2018-01-20T10:40:58.994Z,1.80
2018-01-20T10:44:09.348Z,1.90
2018-01-20T10:47:19.570Z,1.90
2018-01-20T10:50:30.611Z,2.00
2018-01-20T10:53:41.675Z,2.10
2018-01-20T10:56:52.098Z,2.10
2018-01-20T11:00:03.198Z,2.20
2018-01-20T11:03:13.834Z,2.10
2018-01-20T11:06:23.999Z,2.10
2018-01-20T11:09:34.656Z,2.10
2018-01-20T11:12:44.826Z,2.10
2018-01-20T11:15:54.937Z,2.10
2018-01-20T11:19:05.647Z,2.10
2018-01-20T11:22:17.275Z,2.00
2018-01-20T11:25:28.537Z,2.00
2018-01-20T11:28:39.070Z,2.00
2018-01-20T11:31:48.993Z,2.00
2018-01-20T11:34:59.262Z,1.90
2018-01-20T11:38:09.156Z,1.90
2018-01-20T11:41:20.357Z,2.00
2018-01-20T11:44:30.892Z,2.00
2018-01-20T11:47:40.846Z,2.10
2018-01-20T11:50:50.997Z,2.40
2018-01-20T11:54:01.023Z,2.40
2018-01-20T11:57:11.251Z,2.60
2018-01-20T12:00:21.142Z,2.60
2018-01-20T12:03:32.929Z,2.60
2018-01-20T12:06:43.259Z,2.80
2018-01-20T12:09:53.575Z,2.90
2018-01-20T12:13:03.717Z,3.00
2018-01-20T12:16:14.451Z,3.10
2018-01-20T12:19:25.416Z,3.10
2018-01-20T12:22:35.947Z,3.00
2018-01-20T12:25:46.852Z,3.10
2018-01-20T12:28:57.357Z,2.80
2018-01-20T12:32:07.298Z,2.80
2018-01-20T12:35:17.814Z,2.90
2018-01-20T12:38:28.215Z,2.90
2018-01-20T12:41:38.940Z,3.00
2018-01-20T12:44:48.937Z,3.00
2018-01-20T12:47:59.226Z,2.90
2018-01-20T12:51:09.744Z,2.90
2018-01-20T12:54:20.918Z,3.00
2018-01-20T12:57:31.120Z,3.00
2018-01-20T13:00:41.576Z,3.10
2018-01-20T13:03:51.538Z,3.00
2018-01-20T13:07:01.445Z,3.10
2018-01-20T13:10:11.642Z,3.20
2018-01-20T13:13:21.497Z,3.10
2018-01-20T13:16:33.065Z,3.00
2018-01-20T13:19:43.369Z,2.90
2018-01-20T13:22:53.518Z,3.00
2018-01-20T13:26:04.103Z,3.10
2018-01-20T13:29:14.782Z,3.00
2018-01-20T13:32:25.070Z,3.00
2018-01-20T13:35:35.340Z,3.00
2018-01-20T13:38:45.720Z,2.80
2018-01-20T13:41:56.336Z,2.70
2018-01-20T13:45:06.327Z,2.60
2018-01-20T13:48:16.575Z,2.60
2018-01-20T13:51:26.878Z,2.50
2018-01-20T13:54:37.309Z,2.50
2018-01-20T13:57:47.627Z,2.30
2018-01-20T14:01:00.044Z,2.30
2018-01-20T14:04:11.238Z,2.30
2018-01-20T14:07:21.139Z,2.30
2018-01-20T14:10:31.719Z,2.30
2018-01-20T14:13:42.099Z,2.30
2018-01-20T14:16:52.131Z,2.20
2018-01-20T14:20:02.023Z,2.20
2018-01-20T14:23:11.897Z,2.20
2018-01-20T14:26:21.675Z,2.20
2018-01-20T14:29:31.886Z,2.10
2018-01-20T14:32:41.752Z,2.10
2018-01-20T14:35:51.737Z,2.10
2018-01-20T14:39:01.783Z,2.10
2018-01-20T14:42:11.750Z,2.10
2018-01-20T14:45:21.462Z,2.00
2018-01-20T14:48:32.418Z,2.00
2018-01-20T14:51:42.351Z,2.00
2018-01-20T14:54:52.702Z,2.00
2018-01-20T14:58:03.482Z,1.90
2018-01-20T15:01:13.970Z,1.90
2018-01-20T15:04:23.961Z,1.90
2018-01-20T15:07:34.511Z,1.90
2018-01-20T15:10:44.957Z,1.90
2018-01-20T15:13:55.640Z,1.90
2018-01-20T15:17:06.782Z,1.80
2018-01-20T15:20:16.813Z,1.80
2018-01-20T15:23:27.419Z,1.80
2018-01-20T15:26:37.427Z,1.80
2018-01-20T15:29:48.595Z,1.70
2018-01-20T15:32:58.851Z,1.70
2018-01-20T15:36:08.658Z,1.70
2018-01-20T15:39:18.474Z,1.70
2018-01-20T15:42:28.241Z,1.70
2018-01-20T15:45:37.979Z,1.80
2018-01-20T15:48:47.790Z,1.70
2018-01-20T15:51:57.688Z,1.70
2018-01-20T15:55:07.785Z,1.70
2018-01-20T15:58:18.410Z,1.60
2018-01-20T16:01:28.191Z,1.60
2018-01-20T16:04:38.014Z,1.50
2018-01-20T16:07:48.434Z,1.50
2018-01-20T16:10:59.315Z,1.50
2018-01-20T16:14:09.810Z,1.50
2018-01-20T16:17:20.256Z,1.40
2018-01-20T16:20:30.457Z,1.30
2018-01-20T16:23:40.583Z,1.30
2018-01-20T16:26:51.835Z,1.30
2018-01-20T16:30:01.698Z,1.30
2018-01-20T16:33:11.918Z,1.30
2018-01-20T16:36:22.936Z,1.30
2018-01-20T16:39:32.743Z,1.20
2018-01-20T16:42:42.470Z,1.30
2018-01-20T16:45:52.398Z,1.30
2018-01-20T16:49:02.404Z,1.20
2018-01-20T16:52:12.178Z,1.20
2018-01-20T16:55:21.977Z,1.20
2018-01-20T16:58:32.698Z,1.10
2018-01-20T17:01:42.597Z,1.00
2018-01-20T17:04:52.421Z,1.00
2018-01-20T17:08:02.440Z,1.00
2018-01-20T17:11:12.261Z,1.00
2018-01-20T17:14:22.178Z,1.00
2018-01-20T17:17:32.858Z,1.10
2018-01-20T17:20:43.177Z,1.00
2018-01-20T17:23:53.549Z,1.10
2018-01-20T17:27:04.102Z,1.00
2018-01-20T17:30:14.319Z,1.10
2018-01-20T17:33:24.417Z,1.10
2018-01-20T17:36:35.112Z,1.00
2018-01-20T17:39:45.700Z,1.00
2018-01-20T17:42:56.929Z,1.00
2018-01-20T17:46:07.066Z,1.00
2018-01-20T17:49:16.951Z,1.00
2018-01-20T17:52:27.096Z,1.00
2018-01-20T17:55:36.658Z,1.00
2018-01-20T17:58:46.612Z,1.00
2018-01-20T18:01:56.260Z,0.90
2018-01-20T18:05:06.174Z,0.90
2018-01-20T18:08:16.791Z,0.90
2018-01-20T18:11:27.170Z,1.00
2018-01-20T18:14:36.976Z,0.90
2018-01-20T18:17:46.922Z,1.00
2018-01-20T18:20:57.465Z,1.00
2018-01-20T18:24:07.783Z,1.00
2018-01-20T18:27:18.555Z,1.00
2018-01-20T18:30:28.746Z,1.00
2018-01-20T18:33:39.139Z,1.00
2018-01-20T18:36:49.187Z,1.00
2018-01-20T18:39:59.528Z,1.00
2018-01-20T18:43:10.049Z,1.00
2018-01-20T18:46:20.502Z,1.00
2018-01-20T18:49:31.390Z,1.00
2018-01-20T18:52:42.459Z,1.00
2018-01-20T18:55:53.899Z,1.00
2018-01-20T18:59:04.660Z,1.10
2018-01-20T19:02:15.304Z,1.00
2018-01-20T19:05:25.724Z,1.10
2018-01-20T19:08:35.628Z,1.10
2018-01-20T19:11:46.376Z,1.10
2018-01-20T19:14:56.346Z,1.10
2018-01-20T19:18:06.173Z,1.10
2018-01-20T19:21:16.305Z,1.10
2018-01-20T19:24:27.294Z,1.10
2018-01-20T19:27:37.991Z,1.10
2018-01-20T19:30:47.888Z,1.00
2018-01-20T19:33:57.826Z,1.00
2018-01-20T19:37:07.702Z,1.00
2018-01-20T19:40:17.595Z,1.00
2018-01-20T19:43:27.366Z,1.00
2018-01-20T19:46:37.432Z,1.00
2018-01-20T19:49:47.594Z,1.00
2018-01-20T19:52:57.970Z,1.00
2018-01-20T19:56:07.990Z,1.00
2018-01-20T19:59:17.870Z,1.00
2018-01-20T20:02:28.169Z,1.00
2018-01-20T20:05:38.527Z,1.00
2018-01-20T20:08:48.353Z,1.00
2018-01-20T20:11:58.994Z,1.00
2018-01-20T20:15:09.381Z,1.00
2018-01-20T20:18:19.373Z,1.00
2018-01-20T20:21:29.174Z,1.00
2018-01-20T20:24:38.999Z,1.00
2018-01-20T20:27:49.724Z,1.00
2018-01-20T20:30:59.798Z,1.00
2018-01-20T20:34:10.470Z,1.10
2018-01-20T20:37:20.717Z,1.10
2018-01-20T20:40:30.592Z,1.10
2018-01-20T20:43:40.554Z,1.00
2018-01-20T20:46:51.305Z,1.00
2018-01-20T20:50:01.320Z,1.00
2018-01-20T20:53:11.422Z,1.10
2018-01-20T20:56:21.281Z,1.10
2018-01-20T20:59:31.359Z,1.10
2018-01-20T21:02:41.690Z,1.10
2018-01-20T21:05:51.871Z,1.10
2018-01-20T21:09:02.167Z,1.10
2018-01-20T21:12:12.810Z,1.10
2018-01-20T21:15:23.385Z,1.10
2018-01-20T21:18:33.991Z,1.00
2018-01-20T21:21:44.475Z,1.00
2018-01-20T21:24:55.586Z,1.10
2018-01-20T21:28:05.893Z,1.00
2018-01-20T21:31:16.036Z,1.10
2018-01-20T21:34:25.730Z,1.10
2018-01-20T21:37:35.638Z,1.10
2018-01-20T21:40:45.551Z,1.10
2018-01-20T21:43:55.446Z,1.10
2018-01-20T21:47:05.306Z,1.10
2018-01-20T21:50:15.209Z,1.10
2018-01-20T21:53:25.200Z,1.10
2018-01-20T21:56:36.885Z,1.10
2018-01-20T21:59:47.109Z,1.00
2018-01-20T22:02:57.229Z,1.00
2018-01-20T22:06:08.097Z,1.00
2018-01-20T22:09:19.245Z,1.00
2018-01-20T22:12:30.645Z,1.00
2018-01-20T22:15:41.178Z,1.00
2018-01-20T22:18:52.296Z,1.00
2018-01-20T22:22:02.719Z,1.00
2018-01-20T22:25:13.537Z,1.00
2018-01-20T22:28:23.264Z,1.00
2018-01-20T22:31:33.871Z,1.00
2018-01-20T22:34:43.662Z,1.00
2018-01-20T22:37:53.491Z,1.10
2018-01-20T22:41:04.045Z,1.10
2018-01-20T22:44:14.230Z,1.10
2018-01-20T22:47:24.198Z,1.10
2018-01-20T22:50:34.970Z,1.10
2018-01-20T22:53:45.237Z,1.00
2018-01-20T22:56:55.938Z,1.10
2018-01-20T23:00:05.432Z,1.10
2018-01-20T23:03:15.673Z,1.10
2018-01-20T23:06:25.558Z,1.10
2018-01-20T23:09:35.345Z,1.20
2018-01-20T23:12:45.180Z,1.10
2018-01-20T23:15:55.631Z,1.10
2018-01-20T23:19:05.627Z,1.00
2018-01-20T23:22:15.438Z,1.00
2018-01-20T23:25:26.016Z,1.10
2018-01-20T23:28:37.169Z,1.20
2018-01-20T23:31:47.753Z,1.20
2018-01-20T23:34:58.444Z,1.10
2018-01-20T23:38:08.919Z,1.10
2018-01-20T23:41:18.724Z,1.10
2018-01-20T23:44:28.929Z,1.10
2018-01-20T23:47:39.714Z,1.00
2018-01-20T23:50:50.585Z,1.00
2018-01-20T23:54:00.242Z,1.00
2018-01-20T23:57:09.968Z,1.00
